createdAt,value
2023-03-27T00:01:13.274Z,11.48
2023-03-27T00:03:40.862Z,11.49
2023-03-27T00:06:11.934Z,11.48
2023-03-27T00:08:38.854Z,11.62
2023-03-27T00:11:08.066Z,11.53
2023-03-27T00:13:36.572Z,11.44
2023-03-27T00:16:16.323Z,11.38
2023-03-27T00:18:43.127Z,11.38
2023-03-27T00:21:09.884Z,11.44
2023-03-27T00:23:36.710Z,11.53
2023-03-27T00:26:04.387Z,11.54
2023-03-27T00:28:31.168Z,11.49
2023-03-27T00:30:58.540Z,11.43
2023-03-27T00:33:26.000Z,11.43
2023-03-27T00:35:52.995Z,11.43
2023-03-27T00:38:20.939Z,11.41
2023-03-27T00:40:50.817Z,11.38
2023-03-27T00:43:26.529Z,11.45
2023-03-27T00:46:08.081Z,11.41
2023-03-27T00:48:37.745Z,11.38
2023-03-27T00:51:05.826Z,11.32
2023-03-27T00:53:33.638Z,11.21
2023-03-27T00:56:03.792Z,11.16
2023-03-27T00:58:41.246Z,11.35
2023-03-27T01:01:12.654Z,11.33
2023-03-27T01:03:42.488Z,11.38
2023-03-27T01:06:11.212Z,11.20
2023-03-27T01:08:38.667Z,11.26
2023-03-27T01:11:43.401Z,11.36
2023-03-27T01:14:30.519Z,11.43
2023-03-27T01:17:00.394Z,11.52
2023-03-27T01:19:33.123Z,11.54
2023-03-27T01:22:44.110Z,11.62
2023-03-27T01:25:10.797Z,11.70
2023-03-27T01:28:06.678Z,11.76
2023-03-27T01:30:38.929Z,11.74
2023-03-27T01:33:09.031Z,11.67
2023-03-27T01:35:51.248Z,11.53
2023-03-27T01:39:00.218Z,11.58
2023-03-27T01:41:47.370Z,11.34
2023-03-27T01:44:26.002Z,11.36
2023-03-27T01:47:30.185Z,11.40
2023-03-27T01:50:37.424Z,11.47
2023-03-27T01:53:12.999Z,11.51
2023-03-27T01:55:45.622Z,11.53
2023-03-27T01:58:19.156Z,11.60
2023-03-27T02:00:53.241Z,11.65
2023-03-27T02:03:30.411Z,11.71
2023-03-27T02:06:12.321Z,11.78
2023-03-27T02:08:58.734Z,11.84
2023-03-27T02:11:30.616Z,11.87
2023-03-27T02:14:07.479Z,11.89
2023-03-27T02:16:46.999Z,11.93
2023-03-27T02:19:20.820Z,11.95
2023-03-27T02:21:48.188Z,12.00
2023-03-27T02:24:19.344Z,12.04
2023-03-27T02:26:51.790Z,11.98
2023-03-27T02:29:43.937Z,12.07
2023-03-27T02:32:17.445Z,12.08
2023-03-27T02:35:01.460Z,12.10
2023-03-27T02:37:49.853Z,12.11
2023-03-27T02:40:41.309Z,12.15
2023-03-27T02:43:48.989Z,12.17
2023-03-27T02:46:31.551Z,12.18
2023-03-27T02:49:04.608Z,12.17
2023-03-27T02:51:38.104Z,12.17
2023-03-27T02:54:27.680Z,12.18
2023-03-27T02:57:03.505Z,12.15
2023-03-27T02:59:52.884Z,12.10
2023-03-27T03:02:26.705Z,12.04
2023-03-27T03:05:06.227Z,12.02
2023-03-27T03:07:40.233Z,12.01
2023-03-27T03:10:09.791Z,12.01
2023-03-27T03:12:36.884Z,11.90
2023-03-27T03:15:04.219Z,11.85
2023-03-27T03:17:31.594Z,11.85
2023-03-27T03:19:58.287Z,11.85
2023-03-27T03:22:26.380Z,11.82
2023-03-27T03:24:53.566Z,11.73
2023-03-27T03:27:25.824Z,11.75
2023-03-27T03:30:01.520Z,11.73
2023-03-27T03:32:30.975Z,11.75
2023-03-27T03:34:58.000Z,11.72
2023-03-27T03:37:28.669Z,11.65
2023-03-27T03:39:57.309Z,11.60
2023-03-27T03:42:24.559Z,11.55
2023-03-27T03:44:54.109Z,11.54
2023-03-27T03:47:22.503Z,11.40
2023-03-27T03:49:50.435Z,11.25
2023-03-27T03:52:17.610Z,11.14
2023-03-27T03:54:46.564Z,11.16
2023-03-27T03:57:13.881Z,11.16
2023-03-27T03:59:41.360Z,11.04
2023-03-27T04:02:43.663Z,10.85
2023-03-27T04:05:13.396Z,10.77
2023-03-27T04:07:41.239Z,10.74
2023-03-27T04:10:27.845Z,10.78
2023-03-27T04:12:55.545Z,10.83
2023-03-27T04:15:27.455Z,10.82
2023-03-27T04:18:06.199Z,10.81
2023-03-27T04:20:34.754Z,10.66
2023-03-27T04:23:05.950Z,10.49
2023-03-27T04:25:36.639Z,10.43
2023-03-27T04:28:03.688Z,10.44
2023-03-27T04:30:34.852Z,10.41
2023-03-27T04:33:20.325Z,10.34
2023-03-27T04:36:10.660Z,10.34
2023-03-27T04:39:13.061Z,10.44
2023-03-27T04:41:39.981Z,10.36
2023-03-27T04:44:07.424Z,10.22
2023-03-27T04:46:38.916Z,10.15
2023-03-27T04:49:09.513Z,10.13
2023-03-27T04:51:49.392Z,10.08
2023-03-27T04:54:17.924Z,10.14
2023-03-27T04:56:46.700Z,10.24
2023-03-27T04:59:15.564Z,10.27
2023-03-27T05:01:43.443Z,10.14
2023-03-27T05:04:10.302Z,10.06
2023-03-27T05:07:00.362Z,10.11
2023-03-27T05:09:27.396Z,10.02
2023-03-27T05:11:54.134Z,10.14
2023-03-27T05:14:23.048Z,10.22
2023-03-27T05:16:52.399Z,10.21
2023-03-27T05:19:21.055Z,10.18
2023-03-27T05:21:56.540Z,10.17
2023-03-27T05:24:23.461Z,10.10
2023-03-27T05:26:50.289Z,9.99
2023-03-27T05:29:17.195Z,9.93
2023-03-27T05:31:46.374Z,9.91
2023-03-27T05:34:46.121Z,9.84
2023-03-27T05:37:16.586Z,9.86
2023-03-27T05:40:17.497Z,9.80
2023-03-27T05:42:47.526Z,9.75
2023-03-27T05:45:15.521Z,9.73
2023-03-27T05:47:46.409Z,9.76
2023-03-27T05:50:14.657Z,9.87
2023-03-27T05:52:42.214Z,9.95
2023-03-27T05:55:10.498Z,9.95
2023-03-27T05:57:40.646Z,9.97
2023-03-27T06:00:14.053Z,9.95
2023-03-27T06:02:43.835Z,9.91
2023-03-27T06:05:14.352Z,9.95
2023-03-27T06:07:47.709Z,10.00
2023-03-27T06:10:20.362Z,10.02
2023-03-27T06:13:06.569Z,10.13
2023-03-27T06:15:42.764Z,10.08
2023-03-27T06:18:22.203Z,10.12
2023-03-27T06:20:49.029Z,10.14
2023-03-27T06:23:15.973Z,10.18
2023-03-27T06:25:44.213Z,10.24
2023-03-27T06:28:13.353Z,10.29
2023-03-27T06:30:45.111Z,10.35
2023-03-27T06:33:27.496Z,10.33
2023-03-27T06:36:00.838Z,10.33
2023-03-27T06:38:33.468Z,10.45
2023-03-27T06:41:04.810Z,10.53
2023-03-27T06:43:49.902Z,10.69
2023-03-27T06:46:42.695Z,10.78
2023-03-27T06:49:37.593Z,10.90
2023-03-27T06:52:17.736Z,10.95
2023-03-27T06:54:46.252Z,11.01
2023-03-27T06:57:13.701Z,11.06
2023-03-27T06:59:48.945Z,11.10
2023-03-27T07:02:20.761Z,11.15
2023-03-27T07:04:57.715Z,11.25
2023-03-27T07:07:36.187Z,11.35
2023-03-27T07:10:03.669Z,11.48
2023-03-27T07:12:31.040Z,11.53
2023-03-27T07:14:57.998Z,11.68
2023-03-27T07:17:34.880Z,11.68
2023-03-27T07:20:14.005Z,11.81
2023-03-27T07:22:43.013Z,11.77
2023-03-27T07:25:20.028Z,11.84
2023-03-27T07:27:47.376Z,11.97
2023-03-27T07:30:14.388Z,12.01
2023-03-27T07:32:44.670Z,12.01
2023-03-27T07:35:12.814Z,12.02
2023-03-27T07:38:03.279Z,12.17
2023-03-27T07:40:40.076Z,12.30
2023-03-27T07:43:45.868Z,12.38
2023-03-27T07:46:12.960Z,12.72
2023-03-27T07:48:40.034Z,12.93
2023-03-27T07:51:14.362Z,13.04
2023-03-27T07:53:43.701Z,13.11
2023-03-27T07:56:23.585Z,13.10
2023-03-27T07:59:06.918Z,13.17
2023-03-27T08:01:34.288Z,13.37
2023-03-27T08:04:01.758Z,13.49
2023-03-27T08:06:29.293Z,13.81
2023-03-27T08:08:57.176Z,13.97
2023-03-27T08:11:30.681Z,14.05
2023-03-27T08:13:59.059Z,14.05
2023-03-27T08:16:29.645Z,14.25
2023-03-27T08:18:58.694Z,14.34
2023-03-27T08:21:26.596Z,14.41
2023-03-27T08:23:57.756Z,14.44
2023-03-27T08:26:33.927Z,14.59
2023-03-27T08:29:09.000Z,14.59
2023-03-27T08:31:37.085Z,14.59
2023-03-27T08:34:05.341Z,14.50
2023-03-27T08:36:58.426Z,14.50
2023-03-27T08:39:34.874Z,14.47
2023-03-27T08:42:08.404Z,14.48
2023-03-27T08:44:38.619Z,14.48
2023-03-27T08:47:33.255Z,14.52
2023-03-27T08:50:22.032Z,14.61
2023-03-27T08:52:52.885Z,14.79
2023-03-27T08:55:38.528Z,14.92
2023-03-27T08:58:21.630Z,15.06
2023-03-27T09:01:22.304Z,15.11
2023-03-27T09:04:28.443Z,15.21
2023-03-27T09:07:15.378Z,15.31
2023-03-27T09:10:22.368Z,15.39
2023-03-27T09:12:56.880Z,15.43
2023-03-27T09:15:28.470Z,15.47
2023-03-27T09:18:02.969Z,15.55
2023-03-27T09:21:07.918Z,15.65
2023-03-27T09:23:46.503Z,15.70
2023-03-27T09:26:47.624Z,15.66
2023-03-27T09:29:39.464Z,15.57
2023-03-27T09:32:26.690Z,15.73
2023-03-27T09:35:03.770Z,15.85
2023-03-27T09:37:31.518Z,15.80
2023-03-27T09:40:00.424Z,15.85
2023-03-27T09:42:41.281Z,15.95
2023-03-27T09:45:12.637Z,16.01
2023-03-27T09:48:04.197Z,15.99
2023-03-27T09:50:47.480Z,16.07
2023-03-27T09:53:28.033Z,16.14
2023-03-27T09:56:12.843Z,16.19
2023-03-27T09:58:46.259Z,16.21
2023-03-27T10:01:16.159Z,16.26
2023-03-27T10:03:51.898Z,16.35
2023-03-27T10:06:38.786Z,16.36
2023-03-27T10:09:27.666Z,16.35
2023-03-27T10:12:06.096Z,16.37
2023-03-27T10:14:39.262Z,16.44
2023-03-27T10:17:13.034Z,16.43
2023-03-27T10:19:42.155Z,16.52
2023-03-27T10:22:31.100Z,16.58
2023-03-27T10:25:04.898Z,16.69
2023-03-27T10:27:53.009Z,16.72
2023-03-27T10:30:38.140Z,16.81
2023-03-27T10:33:41.376Z,16.88
2023-03-27T10:36:20.378Z,16.99
2023-03-27T10:38:54.939Z,17.10
2023-03-27T10:41:48.644Z,17.27
2023-03-27T10:44:19.245Z,17.26
2023-03-27T10:46:53.612Z,17.42
2023-03-27T10:49:42.760Z,17.35
2023-03-27T10:52:23.324Z,17.31
2023-03-27T10:55:44.991Z,17.42
2023-03-27T10:58:52.140Z,17.48
2023-03-27T11:01:31.379Z,17.42
2023-03-27T11:04:09.145Z,17.56
2023-03-27T11:06:48.839Z,17.79
2023-03-27T11:09:34.387Z,17.95
2023-03-27T11:12:16.850Z,18.02
2023-03-27T11:15:13.614Z,18.15
2023-03-27T11:17:48.175Z,18.18
2023-03-27T11:20:31.454Z,18.26
2023-03-27T11:23:17.341Z,18.13
2023-03-27T11:26:06.098Z,17.87
2023-03-27T11:28:41.258Z,17.69
2023-03-27T11:31:34.613Z,17.66
2023-03-27T11:34:07.425Z,17.70
2023-03-27T11:36:41.883Z,17.94
2023-03-27T11:39:36.574Z,18.05
2023-03-27T11:42:17.895Z,18.04
2023-03-27T11:44:47.989Z,18.17
2023-03-27T11:48:10.208Z,18.26
2023-03-27T11:50:50.521Z,18.37
2023-03-27T11:53:45.406Z,18.36
2023-03-27T11:56:24.836Z,18.56
2023-03-27T11:59:23.114Z,18.35
2023-03-27T12:02:02.860Z,18.48
2023-03-27T12:04:59.710Z,18.53
2023-03-27T12:07:48.167Z,18.49
2023-03-27T12:10:30.240Z,18.51
2023-03-27T12:13:40.735Z,18.54
2023-03-27T12:16:22.556Z,18.69
2023-03-27T12:20:01.971Z,18.70
2023-03-27T12:22:39.122Z,18.71
2023-03-27T12:25:33.634Z,18.63
2023-03-27T12:28:53.018Z,18.57
2023-03-27T12:31:53.108Z,18.55
2023-03-27T12:34:41.621Z,18.64
2023-03-27T12:37:13.707Z,18.62
2023-03-27T12:39:54.196Z,18.63
2023-03-27T12:42:43.947Z,18.57
2023-03-27T12:45:22.616Z,18.65
2023-03-27T12:48:10.765Z,18.73
2023-03-27T12:50:53.757Z,18.60
2023-03-27T12:53:29.750Z,18.59
2023-03-27T12:56:19.539Z,18.61
2023-03-27T12:58:52.937Z,18.61
2023-03-27T13:02:07.023Z,18.57
2023-03-27T13:04:49.927Z,18.60
2023-03-27T13:07:24.796Z,18.56
2023-03-27T13:10:29.949Z,18.66
2023-03-27T13:13:18.524Z,18.65
2023-03-27T13:15:57.779Z,18.68
2023-03-27T13:18:55.608Z,18.67
2023-03-27T13:22:04.070Z,18.71
2023-03-27T13:24:38.599Z,18.72
2023-03-27T13:27:24.403Z,18.57
2023-03-27T13:29:52.796Z,18.58
2023-03-27T13:32:33.732Z,18.60
2023-03-27T13:35:19.260Z,18.60
2023-03-27T13:37:54.410Z,18.54
2023-03-27T13:40:41.366Z,18.42
2023-03-27T13:43:33.809Z,18.52
2023-03-27T13:46:16.329Z,18.47
2023-03-27T13:48:48.695Z,18.55
2023-03-27T13:51:28.378Z,18.61
2023-03-27T13:54:23.389Z,18.63
2023-03-27T13:57:09.270Z,18.60
2023-03-27T13:59:54.126Z,18.64
2023-03-27T14:02:48.444Z,18.65
2023-03-27T14:06:00.023Z,18.51
2023-03-27T14:08:57.237Z,18.49
2023-03-27T14:11:50.778Z,18.58
2023-03-27T14:14:52.746Z,18.66
2023-03-27T14:17:31.709Z,18.54
2023-03-27T14:20:19.243Z,18.53
2023-03-27T14:23:03.695Z,18.51
2023-03-27T14:25:53.912Z,18.57
2023-03-27T14:28:51.772Z,18.63
2023-03-27T14:31:35.431Z,18.49
2023-03-27T14:34:15.977Z,18.48
2023-03-27T14:36:47.593Z,18.42
2023-03-27T14:39:27.860Z,18.36
2023-03-27T14:42:02.908Z,18.36
2023-03-27T14:44:33.403Z,18.31
2023-03-27T14:47:12.054Z,18.28
2023-03-27T14:49:49.136Z,18.28
2023-03-27T14:52:36.179Z,18.30
2023-03-27T14:55:24.274Z,18.32
2023-03-27T14:58:11.911Z,18.35
2023-03-27T15:00:41.670Z,18.32
2023-03-27T15:03:22.048Z,18.33
2023-03-27T15:06:05.807Z,18.34
2023-03-27T15:08:46.806Z,18.33
2023-03-27T15:11:41.113Z,18.26
2023-03-27T15:14:20.767Z,18.25
2023-03-27T15:17:15.776Z,18.26
2023-03-27T15:19:49.614Z,18.23
2023-03-27T15:22:29.865Z,18.21
2023-03-27T15:25:09.365Z,18.16
2023-03-27T15:27:49.531Z,18.21
2023-03-27T15:30:43.797Z,18.18
2023-03-27T15:33:20.408Z,18.18
2023-03-27T15:35:53.283Z,18.11
2023-03-27T15:38:28.860Z,18.09
2023-03-27T15:41:17.277Z,18.15
2023-03-27T15:43:44.354Z,18.10
2023-03-27T15:46:19.940Z,18.09
2023-03-27T15:48:55.457Z,18.10
2023-03-27T15:51:25.278Z,18.12
2023-03-27T15:53:55.805Z,18.14
2023-03-27T15:56:27.367Z,18.09
2023-03-27T15:59:10.679Z,18.15
2023-03-27T16:01:54.464Z,18.13
2023-03-27T16:04:25.813Z,18.07
2023-03-27T16:07:03.562Z,18.01
2023-03-27T16:09:34.379Z,17.94
2023-03-27T16:12:01.345Z,17.92
2023-03-27T16:14:43.844Z,17.90
2023-03-27T16:17:20.627Z,17.90
2023-03-27T16:19:56.439Z,17.86
2023-03-27T16:22:24.736Z,17.82
2023-03-27T16:24:52.494Z,17.76
2023-03-27T16:27:23.122Z,17.73
2023-03-27T16:29:51.599Z,17.74
2023-03-27T16:32:20.541Z,17.67
2023-03-27T16:34:53.454Z,17.64
2023-03-27T16:37:24.004Z,17.62
2023-03-27T16:39:51.169Z,17.63
2023-03-27T16:42:21.737Z,17.54
2023-03-27T16:44:50.833Z,17.48
2023-03-27T16:47:18.210Z,17.41
2023-03-27T16:49:49.178Z,17.42
2023-03-27T16:52:20.498Z,17.38
2023-03-27T16:54:47.584Z,17.38
2023-03-27T16:57:14.581Z,17.36
2023-03-27T16:59:41.415Z,17.29
2023-03-27T17:02:10.966Z,17.23
2023-03-27T17:04:37.895Z,17.17
2023-03-27T17:07:05.537Z,17.16
2023-03-27T17:09:33.116Z,17.07
2023-03-27T17:11:59.956Z,17.01
2023-03-27T17:14:27.410Z,17.00
2023-03-27T17:16:54.302Z,16.96
2023-03-27T17:19:21.457Z,16.88
2023-03-27T17:21:48.189Z,16.87
2023-03-27T17:24:15.201Z,16.81
2023-03-27T17:26:42.022Z,16.73
2023-03-27T17:29:10.536Z,16.58
2023-03-27T17:31:38.734Z,16.64
2023-03-27T17:34:07.027Z,16.57
2023-03-27T17:36:42.767Z,16.60
2023-03-27T17:39:14.267Z,16.57
2023-03-27T17:41:41.066Z,16.59
2023-03-27T17:44:14.447Z,16.49
2023-03-27T17:46:41.759Z,16.49
2023-03-27T17:49:08.520Z,16.48
2023-03-27T17:51:37.761Z,16.43
2023-03-27T17:54:04.696Z,16.44
2023-03-27T17:56:32.084Z,16.35
2023-03-27T17:59:00.203Z,16.30
2023-03-27T18:01:27.202Z,16.26
2023-03-27T18:03:55.307Z,16.25
2023-03-27T18:06:24.274Z,16.20
2023-03-27T18:08:51.131Z,16.23
2023-03-27T18:11:18.198Z,16.14
2023-03-27T18:13:45.196Z,16.09
2023-03-27T18:16:12.264Z,16.12
2023-03-27T18:18:39.779Z,16.11
2023-03-27T18:21:08.313Z,15.97
2023-03-27T18:23:35.484Z,15.94
2023-03-27T18:26:07.013Z,15.86
2023-03-27T18:28:34.561Z,15.91
2023-03-27T18:31:03.643Z,15.91
2023-03-27T18:33:30.743Z,15.90
2023-03-27T18:35:57.886Z,15.82
2023-03-27T18:38:25.998Z,15.75
2023-03-27T18:40:55.632Z,15.65
2023-03-27T18:43:23.550Z,15.64
2023-03-27T18:46:01.408Z,15.61
2023-03-27T18:48:31.069Z,15.55
2023-03-27T18:51:02.709Z,15.54
2023-03-27T18:53:30.972Z,15.46
2023-03-27T18:55:59.120Z,15.42
2023-03-27T18:58:28.261Z,15.46
2023-03-27T19:00:56.990Z,15.44
2023-03-27T19:03:26.455Z,15.43
2023-03-27T19:05:53.501Z,15.37
2023-03-27T19:08:21.821Z,15.35
2023-03-27T19:10:49.412Z,15.28
2023-03-27T19:13:42.153Z,15.27
2023-03-27T19:16:29.462Z,15.23
2023-03-27T19:19:34.381Z,15.13
2023-03-27T19:22:19.686Z,15.11
2023-03-27T19:24:52.140Z,15.03
2023-03-27T19:27:23.664Z,14.96
2023-03-27T19:29:54.939Z,15.00
2023-03-27T19:32:23.418Z,14.94
2023-03-27T19:34:50.419Z,14.91
2023-03-27T19:37:17.289Z,14.93
2023-03-27T19:39:44.323Z,14.85
2023-03-27T19:42:11.712Z,14.84
2023-03-27T19:44:38.801Z,14.95
2023-03-27T19:47:07.859Z,14.94
2023-03-27T19:49:34.728Z,14.85
2023-03-27T19:52:20.240Z,14.85
2023-03-27T19:54:47.471Z,14.77
2023-03-27T19:57:17.236Z,14.80
2023-03-27T19:59:44.259Z,14.74
2023-03-27T20:02:14.853Z,14.72
2023-03-27T20:04:41.853Z,14.68
2023-03-27T20:07:12.291Z,14.68
2023-03-27T20:09:39.410Z,14.71
2023-03-27T20:12:07.207Z,14.72
2023-03-27T20:14:34.232Z,14.69
2023-03-27T20:17:01.024Z,14.70
2023-03-27T20:19:30.749Z,14.72
2023-03-27T20:22:00.343Z,14.68
2023-03-27T20:24:29.086Z,14.61
2023-03-27T20:26:59.182Z,14.52
2023-03-27T20:29:26.459Z,14.54
2023-03-27T20:31:53.438Z,14.57
2023-03-27T20:34:22.531Z,14.58
2023-03-27T20:36:53.210Z,14.62
2023-03-27T20:39:49.855Z,14.59
2023-03-27T20:42:23.268Z,14.59
2023-03-27T20:44:58.641Z,14.47
2023-03-27T20:47:39.054Z,14.43
2023-03-27T20:50:06.917Z,14.41
2023-03-27T20:52:33.918Z,14.36
2023-03-27T20:55:01.857Z,14.35
2023-03-27T20:57:29.640Z,14.36
2023-03-27T20:59:56.595Z,14.29
2023-03-27T21:02:23.769Z,14.36
2023-03-27T21:04:50.652Z,14.27
2023-03-27T21:07:17.476Z,14.26
2023-03-27T21:09:46.111Z,14.23
2023-03-27T21:12:13.096Z,14.14
2023-03-27T21:14:39.959Z,14.14
2023-03-27T21:17:07.001Z,14.10
2023-03-27T21:19:33.866Z,14.10
2023-03-27T21:22:00.875Z,14.13
2023-03-27T21:24:28.025Z,14.10
2023-03-27T21:26:54.933Z,14.09
2023-03-27T21:29:21.857Z,14.03
2023-03-27T21:31:48.709Z,13.99
2023-03-27T21:34:15.540Z,13.97
2023-03-27T21:36:42.267Z,13.94
2023-03-27T21:39:10.002Z,13.99
2023-03-27T21:41:36.872Z,13.83
2023-03-27T21:44:03.846Z,13.80
2023-03-27T21:46:30.890Z,13.76
2023-03-27T21:48:57.735Z,13.66
2023-03-27T21:51:24.541Z,13.66
2023-03-27T21:53:51.640Z,13.63
2023-03-27T21:56:18.383Z,13.55
2023-03-27T21:58:45.363Z,13.41
2023-03-27T22:01:12.260Z,13.40
2023-03-27T22:03:39.109Z,13.37
2023-03-27T22:06:12.398Z,13.30
2023-03-27T22:08:41.585Z,13.27
2023-03-27T22:11:09.776Z,13.25
2023-03-27T22:13:38.086Z,13.36
2023-03-27T22:16:10.959Z,13.30
2023-03-27T22:18:38.299Z,13.17
2023-03-27T22:21:25.635Z,12.96
2023-03-27T22:23:54.032Z,12.98
2023-03-27T22:26:24.309Z,13.13
2023-03-27T22:28:52.659Z,13.45
2023-03-27T22:31:21.198Z,13.56
2023-03-27T22:33:48.523Z,13.64
2023-03-27T22:36:15.800Z,13.63
2023-03-27T22:38:42.800Z,13.64
2023-03-27T22:41:11.515Z,13.64
2023-03-27T22:43:39.140Z,13.67
2023-03-27T22:46:08.100Z,13.62
2023-03-27T22:48:34.933Z,13.53
2023-03-27T22:51:01.855Z,13.52
2023-03-27T22:53:29.560Z,13.56
2023-03-27T22:55:57.179Z,13.52
2023-03-27T22:58:25.220Z,13.44
2023-03-27T23:00:53.338Z,13.29
2023-03-27T23:03:21.309Z,13.29
2023-03-27T23:05:49.728Z,13.34
2023-03-27T23:08:18.817Z,13.26
2023-03-27T23:10:46.162Z,13.20
2023-03-27T23:13:13.262Z,13.17
2023-03-27T23:15:40.026Z,13.08
2023-03-27T23:18:06.867Z,13.03
2023-03-27T23:20:33.662Z,13.03
2023-03-27T23:23:00.458Z,13.01
2023-03-27T23:25:27.213Z,13.09
2023-03-27T23:27:53.975Z,13.14
2023-03-27T23:30:20.814Z,13.16
2023-03-27T23:32:47.493Z,13.16
2023-03-27T23:35:14.340Z,13.15
2023-03-27T23:37:41.079Z,13.14
2023-03-27T23:40:08.691Z,13.16
2023-03-27T23:42:35.447Z,13.21
2023-03-27T23:45:02.253Z,13.19
2023-03-27T23:47:28.972Z,13.26
2023-03-27T23:49:55.770Z,13.21
2023-03-27T23:52:22.491Z,13.20
2023-03-27T23:54:49.279Z,13.18
2023-03-27T23:57:16.041Z,13.21
2023-03-27T23:59:42.759Z,13.18
